Aérodrome :
LOGIN :

S'inscrire | Disclaimer

   EN    FR    IT 

 










Légende :    VFR   VFR Marginal   IFR   IFR Intensif   IFR Très Intensif
Visi : 
Plafond : 
>= 8 km
>= 3000ft
5 à 8 km
1000 à 3000 ft
1500m à 5 km
500 à 1000 ft
800 à 1500m
200 à 500 ft
< 800m
< 200 ft
Symboles :   Orages  Brouillard  Fortes neiges  Fortes précipitations  Vent > 20 kt
SIGMETs :   Divers  Orages  Givrage  Turbulence  Onde Orograph.  Cendres Volcan.







- Altitude de l'aérodrome : 17 ft
- Code IATA : MPL
- Voir les cartes d'approche


LFMT - Montpellier Méditerranée

DERNIER METAR :
  • 211000Z AUTO 19015KT 9999 -RA ///TCU 15/10 Q1017 BECMG 02008KT NSC

METARs EXPIRÉS :
  • 210930Z AUTO 09003KT 9999 ///TCU 18/10 Q1016 BECMG NSC
  • 210900Z AUTO 05003KT CAVOK 17/09 Q1016 NOSIG
  • 210830Z AUTO 05003KT 010V080 CAVOK 17/09 Q1016 TEMPO RA
  • 210800Z AUTO VRB03KT CAVOK 17/09 Q1016 TEMPO RA
  • 210730Z AUTO 02004KT CAVOK 16/09 Q1016 TEMPO RA

TAF AMD TAF LFMT
Valide du 21 à 09h jusqu'au 22 à 09h UTC


210955Z 2109/2209 02008KT CAVOK
TEMPO 2109/2114 -RA FEW040TCU
ATIS : +33 4 67 13 11 70
Pas de NOTAMs connus pour ce terrain.
2 SIGMETs publiés pour la FIR Marseille (LFMM) :
 
Turbulence forte
LFMM SIGMET 5 VALID 210900/211200 LFPW
LFMM MARSEILLE FIR/UIR SEV TURB FCST WI N4145 E00945 - N4115 E00945 - N4115 E00815 - N4300 E00930 - N4145 E00945 SFC/FL080 STNR NC=
Turbulence forte
LFMM SIGMET 4 VALID 210850/211200 LFPW
LFMM MARSEILLE FIR/UIR SEV TURB FCST WI N4445 E00700 - N4400 E00700 - N4345 E00800 - N4245 E00545 - N4445 E00615 - N4445 E00700 SFC/FL080 STNR NC=



MET'MAP, la Météo Aéronautique d'un coup d'oeil ! - Copyright ORBIFLY Décembre 2007 - Disclaimer

ORBIFLY MET'MAP TEAM :

Programmation & Développement : Alexandra Zaïnal
Conception & Développement : Baudouin d'Aumeries
Co-Programmation & Développement : Marc-Olivier Méhu
Soutien technique & logistique : Manuel Goepfert

Contact : metmap@orbifly.com




SOURCES & CREDITS :

   NOAA